createdAt,value
2023-11-05T00:02:47.120Z,83.26
2023-11-05T00:05:50.500Z,83.55
2023-11-05T00:08:53.083Z,83.62
2023-11-05T00:11:56.198Z,84.06
2023-11-05T00:14:59.037Z,83.89
2023-11-05T00:18:05.481Z,83.39
2023-11-05T00:21:08.256Z,83.42
2023-11-05T00:24:11.725Z,83.22
2023-11-05T00:27:14.356Z,82.85
2023-11-05T00:30:18.079Z,83.31
2023-11-05T00:33:21.045Z,83.73
2023-11-05T00:36:25.626Z,83.23
2023-11-05T00:39:28.244Z,83.43
2023-11-05T00:42:31.470Z,83.77
2023-11-05T00:45:34.956Z,84.47
2023-11-05T00:48:38.283Z,85.27
2023-11-05T00:51:40.882Z,85.65
2023-11-05T00:54:44.782Z,85.90
2023-11-05T00:57:47.259Z,86.60
2023-11-05T01:00:50.462Z,86.85
2023-11-05T01:03:58.937Z,86.99
2023-11-05T01:07:02.348Z,86.24
2023-11-05T01:10:05.677Z,86.84
2023-11-05T01:13:08.886Z,86.58
2023-11-05T01:16:11.620Z,87.26
2023-11-05T01:19:14.778Z,86.44
2023-11-05T01:22:17.363Z,86.45
2023-11-05T01:25:20.728Z,87.27
2023-11-05T01:28:23.233Z,87.66
2023-11-05T01:31:26.447Z,87.37
2023-11-05T01:34:29.458Z,86.48
2023-11-05T01:37:32.656Z,86.70
2023-11-05T01:40:35.369Z,87.05
2023-11-05T01:43:38.658Z,87.74
2023-11-05T01:46:41.430Z,87.33
2023-11-05T01:49:44.829Z,86.74
2023-11-05T01:52:49.885Z,86.55
2023-11-05T01:55:56.043Z,87.09
2023-11-05T01:58:58.744Z,87.48
2023-11-05T02:02:02.909Z,87.68
2023-11-05T02:05:06.440Z,87.46
2023-11-05T02:08:09.583Z,87.45
2023-11-05T02:11:12.488Z,87.53
2023-11-05T02:14:17.104Z,87.00
2023-11-05T02:17:22.288Z,87.02
2023-11-05T02:20:25.595Z,88.08
2023-11-05T02:23:28.977Z,88.29
2023-11-05T02:26:31.923Z,88.52
2023-11-05T02:29:34.819Z,87.09
2023-11-05T02:32:37.952Z,86.97
2023-11-05T02:35:40.752Z,86.93
2023-11-05T02:38:43.696Z,88.27
2023-11-05T02:41:46.615Z,88.83
2023-11-05T02:44:50.986Z,88.61
2023-11-05T02:47:54.087Z,88.80
2023-11-05T02:50:57.040Z,87.94
2023-11-05T02:54:00.553Z,87.72
2023-11-05T02:57:03.432Z,88.11
2023-11-05T03:00:07.997Z,88.40
2023-11-05T03:03:12.929Z,89.54
2023-11-05T03:06:16.032Z,89.80
2023-11-05T03:09:22.257Z,88.70
2023-11-05T03:12:25.275Z,89.18
2023-11-05T03:15:28.195Z,88.79
2023-11-05T03:18:31.156Z,89.08
2023-11-05T03:21:34.300Z,89.10
2023-11-05T03:24:37.343Z,89.36
2023-11-05T03:27:40.167Z,89.45
2023-11-05T03:30:43.767Z,89.23
2023-11-05T03:33:47.037Z,89.13
2023-11-05T03:36:49.838Z,89.13
2023-11-05T03:39:52.786Z,89.12
2023-11-05T03:42:55.682Z,88.56
2023-11-05T03:45:58.523Z,89.13
2023-11-05T03:49:01.391Z,88.99
2023-11-05T03:52:04.739Z,88.50
2023-11-05T03:55:08.121Z,88.15
2023-11-05T03:58:13.725Z,88.13
2023-11-05T04:01:18.944Z,87.22
2023-11-05T04:04:22.210Z,87.13
2023-11-05T04:07:25.111Z,87.58
2023-11-05T04:10:29.672Z,87.58
2023-11-05T04:13:33.406Z,86.95
2023-11-05T04:16:37.047Z,86.68
2023-11-05T04:19:40.351Z,86.63
2023-11-05T04:22:46.463Z,86.70
2023-11-05T04:25:49.370Z,85.98
2023-11-05T04:28:52.437Z,86.32
2023-11-05T04:31:57.201Z,86.46
2023-11-05T04:35:00.866Z,86.46
2023-11-05T04:38:03.739Z,86.54
2023-11-05T04:41:07.063Z,86.46
2023-11-05T04:44:09.750Z,85.98
2023-11-05T04:47:12.868Z,85.65
2023-11-05T04:50:15.676Z,85.92
2023-11-05T04:53:18.856Z,84.60
2023-11-05T04:56:21.501Z,85.10
2023-11-05T04:59:24.560Z,85.33
2023-11-05T05:02:27.072Z,85.36
2023-11-05T05:05:30.357Z,85.73
2023-11-05T05:08:33.080Z,85.75
2023-11-05T05:11:36.276Z,85.81
2023-11-05T05:14:39.310Z,86.16
2023-11-05T05:17:42.666Z,86.16
2023-11-05T05:20:45.356Z,85.66
2023-11-05T05:23:48.438Z,85.46
2023-11-05T05:26:51.003Z,85.65
2023-11-05T05:29:54.439Z,84.87
2023-11-05T05:32:58.072Z,85.22
2023-11-05T05:36:01.405Z,85.51
2023-11-05T05:39:04.318Z,84.89
2023-11-05T05:42:07.827Z,85.05
2023-11-05T05:45:11.055Z,85.47
2023-11-05T05:48:14.267Z,85.37
2023-11-05T05:51:18.625Z,84.73
2023-11-05T05:54:22.408Z,84.56
2023-11-05T05:57:26.021Z,84.68
2023-11-05T06:00:29.355Z,85.30
2023-11-05T06:03:33.469Z,85.44
2023-11-05T06:06:37.899Z,85.06
2023-11-05T06:09:40.753Z,85.36
2023-11-05T06:12:43.793Z,86.23
2023-11-05T06:15:47.236Z,86.77
2023-11-05T06:18:50.185Z,87.00
2023-11-05T06:21:53.066Z,86.20
2023-11-05T06:24:55.896Z,86.44
2023-11-05T06:27:58.744Z,86.50
2023-11-05T06:31:01.698Z,85.51
2023-11-05T06:34:04.815Z,85.74
2023-11-05T06:37:07.745Z,86.24
2023-11-05T06:40:11.612Z,86.69
2023-11-05T06:43:14.666Z,86.95
2023-11-05T06:46:17.720Z,86.57
2023-11-05T06:49:20.615Z,86.27
2023-11-05T06:52:23.573Z,86.38
2023-11-05T06:55:26.443Z,86.02
2023-11-05T06:58:29.582Z,86.38
2023-11-05T07:01:32.536Z,86.59
2023-11-05T07:04:36.714Z,86.64
2023-11-05T07:07:39.665Z,86.21
2023-11-05T07:10:42.742Z,86.17
2023-11-05T07:13:46.821Z,85.83
2023-11-05T07:16:50.192Z,85.35
2023-11-05T07:19:54.144Z,85.81
2023-11-05T07:22:58.438Z,85.68
2023-11-05T07:26:01.302Z,85.66
2023-11-05T07:29:23.079Z,85.74
2023-11-05T07:32:26.255Z,85.22
2023-11-05T07:35:29.310Z,85.81
2023-11-05T07:38:32.279Z,85.86
2023-11-05T07:41:35.558Z,86.45
2023-11-05T07:44:38.313Z,85.85
2023-11-05T07:47:41.171Z,86.39
2023-11-05T07:50:44.109Z,86.51
2023-11-05T07:53:47.011Z,86.75
2023-11-05T07:56:54.355Z,87.63
2023-11-05T07:59:57.316Z,87.53
2023-11-05T08:03:02.177Z,87.77
2023-11-05T08:06:05.538Z,88.52
2023-11-05T08:09:08.492Z,88.54
2023-11-05T08:12:11.447Z,88.23
2023-11-05T08:15:15.063Z,87.83
2023-11-05T08:18:18.091Z,88.76
2023-11-05T08:21:23.040Z,89.20
2023-11-05T08:24:25.938Z,89.28
2023-11-05T08:27:30.985Z,88.99
2023-11-05T08:30:34.132Z,89.08
2023-11-05T08:33:37.078Z,89.00
2023-11-05T08:36:40.042Z,89.04
2023-11-05T08:39:42.963Z,88.93
2023-11-05T08:42:48.966Z,88.80
2023-11-05T08:45:52.296Z,88.87
2023-11-05T08:48:55.711Z,89.25
2023-11-05T08:51:59.331Z,89.14
2023-11-05T08:55:06.934Z,89.98
2023-11-05T08:58:09.910Z,90.13
2023-11-05T09:01:13.420Z,89.72
2023-11-05T09:04:17.145Z,90.04
2023-11-05T09:07:20.261Z,89.72
2023-11-05T09:10:26.939Z,90.17
2023-11-05T09:13:30.010Z,90.39
2023-11-05T09:16:32.940Z,90.86
2023-11-05T09:19:36.774Z,90.19
2023-11-05T09:22:39.956Z,90.88
2023-11-05T09:25:42.917Z,91.76
2023-11-05T09:28:45.745Z,92.34
2023-11-05T09:31:51.674Z,93.91
2023-11-05T09:34:54.921Z,95.57
2023-11-05T09:37:58.002Z,91.90
2023-11-05T09:41:02.212Z,92.93
2023-11-05T09:44:07.020Z,90.82
2023-11-05T09:47:12.384Z,92.78
2023-11-05T09:50:15.393Z,92.38
2023-11-05T09:53:19.085Z,91.11
2023-11-05T09:56:22.540Z,91.23
2023-11-05T09:59:25.441Z,92.60
2023-11-05T10:03:01.417Z,91.83
2023-11-05T10:06:05.504Z,90.31
2023-11-05T10:09:08.824Z,91.10
2023-11-05T10:12:12.057Z,92.43
2023-11-05T10:15:15.157Z,92.32
2023-11-05T10:18:20.197Z,91.16
2023-11-05T10:21:37.434Z,89.82
2023-11-05T10:24:41.307Z,90.83
2023-11-05T10:27:43.816Z,92.53
2023-11-05T10:30:56.499Z,93.46
2023-11-05T10:34:04.569Z,92.86
2023-11-05T10:37:08.234Z,94.06
2023-11-05T10:40:16.041Z,92.69
2023-11-05T10:43:26.287Z,91.41
2023-11-05T10:46:32.874Z,92.56
2023-11-05T10:49:37.419Z,94.60
2023-11-05T10:52:46.425Z,94.41
2023-11-05T10:55:52.717Z,94.19
2023-11-05T10:58:57.202Z,93.33
2023-11-05T11:02:01.271Z,93.08
2023-11-05T11:05:05.828Z,93.92
2023-11-05T11:08:13.171Z,94.30
2023-11-05T11:11:16.929Z,93.38
2023-11-05T11:14:21.122Z,93.87
2023-11-05T11:17:33.547Z,94.40
2023-11-05T11:20:39.187Z,94.02
2023-11-05T11:23:42.051Z,93.47
2023-11-05T11:26:45.972Z,94.04
2023-11-05T11:29:48.766Z,94.28
2023-11-05T11:32:52.198Z,94.40
2023-11-05T11:35:55.220Z,95.16
2023-11-05T11:38:58.558Z,94.51
2023-11-05T11:42:01.710Z,95.77
2023-11-05T11:45:08.383Z,96.67
2023-11-05T11:48:11.822Z,97.71
2023-11-05T11:51:16.956Z,97.69
2023-11-05T11:54:19.895Z,96.89
2023-11-05T11:57:23.954Z,98.92
2023-11-05T12:00:26.745Z,97.15
2023-11-05T12:03:32.846Z,98.45
2023-11-05T12:06:39.775Z,98.62
2023-11-05T12:09:43.070Z,98.90
2023-11-05T12:12:47.967Z,99.32
2023-11-05T12:15:51.351Z,97.57
2023-11-05T12:18:54.570Z,98.42
2023-11-05T12:21:58.590Z,98.23
2023-11-05T12:25:02.849Z,98.14
2023-11-05T12:28:07.765Z,96.28
2023-11-05T12:31:10.615Z,96.67
2023-11-05T12:34:14.376Z,96.72
2023-11-05T12:37:17.090Z,97.15
2023-11-05T12:40:20.319Z,95.40
2023-11-05T12:43:25.031Z,97.45
2023-11-05T12:46:28.658Z,86.85
2023-11-05T12:49:31.480Z,78.17
2023-11-05T12:52:41.956Z,79.34
2023-11-05T12:55:45.338Z,80.66
2023-11-05T12:58:50.791Z,81.05
2023-11-05T13:02:02.781Z,82.81
2023-11-05T13:05:08.864Z,81.20
2023-11-05T13:08:12.498Z,80.84
2023-11-05T13:11:18.971Z,79.94
2023-11-05T13:14:25.764Z,78.60
2023-11-05T13:17:30.537Z,78.55
2023-11-05T13:20:33.812Z,77.22
2023-11-05T13:23:37.112Z,72.37
2023-11-05T13:26:40.041Z,73.18
2023-11-05T13:29:46.064Z,76.25
2023-11-05T13:32:49.331Z,72.40
2023-11-05T13:35:52.664Z,74.68
2023-11-05T13:43:11.232Z,72.24
2023-11-05T13:46:18.303Z,72.06
2023-11-05T13:49:20.973Z,74.19
2023-11-05T13:52:24.220Z,75.17
2023-11-05T13:55:26.999Z,76.47
2023-11-05T13:58:30.333Z,74.32
2023-11-05T14:01:35.171Z,76.99
2023-11-05T14:04:38.831Z,78.09
2023-11-05T14:07:50.381Z,77.24
2023-11-05T14:10:54.033Z,76.93
2023-11-05T14:13:59.864Z,78.26
2023-11-05T14:17:03.442Z,79.24
2023-11-05T14:20:11.761Z,80.69
2023-11-05T14:23:23.301Z,77.50
2023-11-05T14:26:26.622Z,79.28
2023-11-05T14:29:35.547Z,78.25
2023-11-05T14:32:39.914Z,79.99
2023-11-05T14:35:46.228Z,78.29
2023-11-05T14:38:53.335Z,81.16
2023-11-05T14:41:56.736Z,80.97
2023-11-05T14:45:04.841Z,82.46
2023-11-05T14:48:14.679Z,79.53
2023-11-05T14:51:33.626Z,77.43
2023-11-05T14:54:38.478Z,80.04
2023-11-05T14:57:42.405Z,81.11
2023-11-05T15:00:47.201Z,83.22
2023-11-05T15:03:52.329Z,84.59
2023-11-05T15:06:56.991Z,85.33
2023-11-05T15:10:02.297Z,82.39
2023-11-05T15:13:08.437Z,81.24
2023-11-05T15:16:12.043Z,83.00
2023-11-05T15:19:15.825Z,85.71
2023-11-05T15:22:19.784Z,83.46
2023-11-05T15:25:25.081Z,86.56
2023-11-05T15:28:29.486Z,88.50
2023-11-05T15:31:36.496Z,89.42
2023-11-05T15:34:50.163Z,89.32
2023-11-05T15:38:00.647Z,89.72
2023-11-05T15:47:07.957Z,90.93
2023-11-05T15:50:42.287Z,93.24
2023-11-05T15:53:51.674Z,92.95
2023-11-05T15:57:27.270Z,91.94
2023-11-05T16:10:27.306Z,92.16
2023-11-05T16:13:38.651Z,91.41
2023-11-05T16:16:49.203Z,92.58
2023-11-05T16:20:07.438Z,93.45
2023-11-05T16:23:29.201Z,92.60
2023-11-05T16:31:04.088Z,93.15
2023-11-05T16:31:54.773Z,93.75
2023-11-05T16:35:06.995Z,93.99
2023-11-05T16:38:12.607Z,90.31
2023-11-05T16:41:17.395Z,85.59
2023-11-05T16:44:20.499Z,87.21
2023-11-05T16:47:25.106Z,88.47
2023-11-05T16:50:27.828Z,87.77
2023-11-05T16:53:33.414Z,90.51
2023-11-05T16:56:35.933Z,87.98
2023-11-05T16:59:39.745Z,88.80
2023-11-05T17:02:42.631Z,90.79
2023-11-05T17:05:46.192Z,91.24
2023-11-05T17:08:48.889Z,91.65
2023-11-05T17:11:52.644Z,93.03
2023-11-05T17:15:02.767Z,94.68
2023-11-05T17:18:14.847Z,94.38
2023-11-05T17:21:20.407Z,95.35
2023-11-05T17:24:23.702Z,95.27
2023-11-05T17:27:27.683Z,96.01
2023-11-05T17:30:31.852Z,97.05
2023-11-05T17:33:37.935Z,97.18
2023-11-05T17:36:41.676Z,97.43
2023-11-05T17:39:44.416Z,97.87
2023-11-05T17:42:47.681Z,97.70
2023-11-05T17:45:52.975Z,93.45
2023-11-05T17:48:58.243Z,94.55
2023-11-05T17:52:00.885Z,95.84
2023-11-05T17:55:06.185Z,95.95
2023-11-05T17:58:08.809Z,96.17
2023-11-05T18:01:15.352Z,94.97
2023-11-05T18:04:18.900Z,95.68
2023-11-05T18:07:21.974Z,93.10
2023-11-05T18:10:42.810Z,94.32
2023-11-05T18:13:53.455Z,95.51
2023-11-05T18:16:56.459Z,94.44
2023-11-05T18:20:00.765Z,91.31
2023-11-05T18:23:03.910Z,92.82
2023-11-05T18:26:07.035Z,94.51
2023-11-05T18:29:10.048Z,95.92
2023-11-05T18:32:12.922Z,96.41
2023-11-05T18:35:16.008Z,97.11
2023-11-05T18:38:19.338Z,97.79
2023-11-05T18:41:22.242Z,98.03
2023-11-05T18:44:25.435Z,97.94
2023-11-05T18:47:28.791Z,96.77
2023-11-05T18:50:31.750Z,97.04
2023-11-05T18:53:35.433Z,96.29
2023-11-05T18:56:38.445Z,96.14
2023-11-05T18:59:41.376Z,97.09
2023-11-05T19:02:45.233Z,97.96
2023-11-05T19:05:48.327Z,97.65
2023-11-05T19:08:51.178Z,97.85
2023-11-05T19:11:54.824Z,98.72
2023-11-05T19:14:58.595Z,97.26
2023-11-05T19:18:02.487Z,97.57
2023-11-05T19:21:05.717Z,97.82
2023-11-05T19:24:08.754Z,97.69
2023-11-05T19:27:11.899Z,98.14
2023-11-05T19:30:16.384Z,98.29
2023-11-05T19:33:20.488Z,96.83
2023-11-05T19:36:26.424Z,97.75
2023-11-05T19:39:30.488Z,98.85
2023-11-05T19:42:34.995Z,98.60
2023-11-05T19:45:38.193Z,99.21
2023-11-05T19:48:41.440Z,99.05
2023-11-05T19:51:44.286Z,99.78
2023-11-05T19:54:48.426Z,99.43
2023-11-05T19:58:03.931Z,99.06
2023-11-05T20:01:10.797Z,96.87
2023-11-05T20:04:14.878Z,95.88
2023-11-05T20:07:17.934Z,95.90
2023-11-05T20:10:21.308Z,96.97
2023-11-05T20:13:23.942Z,96.88
2023-11-05T20:16:27.085Z,97.15
2023-11-05T20:19:29.897Z,97.51
2023-11-05T20:22:33.024Z,97.16
2023-11-05T20:25:36.105Z,97.85
2023-11-05T20:28:41.442Z,98.01
2023-11-05T20:31:45.843Z,97.50
2023-11-05T20:34:49.299Z,97.81
2023-11-05T20:37:52.053Z,98.10
2023-11-05T20:40:55.269Z,98.41
2023-11-05T20:43:58.412Z,98.67
2023-11-05T20:47:03.476Z,97.57
2023-11-05T20:50:06.860Z,97.49
2023-11-05T20:53:10.233Z,97.73
2023-11-05T20:56:14.200Z,97.92
2023-11-05T20:59:17.556Z,98.06
2023-11-05T21:02:20.196Z,98.02
2023-11-05T21:05:23.475Z,97.46
2023-11-05T21:08:26.171Z,97.22
2023-11-05T21:11:31.541Z,97.87
2023-11-05T21:14:34.216Z,97.98
2023-11-05T21:17:37.994Z,97.45
2023-11-05T21:20:40.849Z,96.71
2023-11-05T21:23:44.030Z,96.61
2023-11-05T21:26:47.522Z,96.94
2023-11-05T21:29:50.673Z,96.96
2023-11-05T21:32:54.518Z,96.46
2023-11-05T21:35:58.130Z,97.21
2023-11-05T21:39:03.331Z,97.44
2023-11-05T21:42:06.488Z,97.48
2023-11-05T21:45:09.514Z,97.76
2023-11-05T21:48:12.777Z,98.21
2023-11-05T21:51:15.532Z,96.95
2023-11-05T21:54:20.040Z,98.13
2023-11-05T21:57:22.776Z,97.71
2023-11-05T22:00:25.927Z,93.87
2023-11-05T22:03:28.832Z,91.44
2023-11-05T22:06:32.061Z,91.60
2023-11-05T22:09:35.184Z,93.62
2023-11-05T22:12:38.078Z,95.88
2023-11-05T22:15:40.911Z,94.92
2023-11-05T22:18:43.879Z,94.41
2023-11-05T22:21:48.125Z,96.58
2023-11-05T22:24:52.989Z,96.95
2023-11-05T22:27:55.896Z,96.80
2023-11-05T22:30:58.829Z,94.07
2023-11-05T22:34:02.878Z,94.05
2023-11-05T22:37:07.000Z,95.01
2023-11-05T22:40:12.139Z,96.27
2023-11-05T22:43:15.141Z,96.75
2023-11-05T22:46:18.167Z,97.67
2023-11-05T22:49:25.144Z,97.26
2023-11-05T22:52:28.533Z,93.27
2023-11-05T22:55:31.406Z,91.25
2023-11-05T22:58:34.313Z,91.15
2023-11-05T23:01:37.966Z,91.46
2023-11-05T23:04:40.941Z,92.14
2023-11-05T23:07:44.784Z,92.36
2023-11-05T23:10:47.796Z,93.33
2023-11-05T23:13:50.606Z,93.62
2023-11-05T23:16:53.666Z,94.80
2023-11-05T23:19:57.007Z,94.61
2023-11-05T23:23:00.216Z,95.38
2023-11-05T23:26:03.180Z,95.77
2023-11-05T23:29:06.217Z,96.72
2023-11-05T23:32:11.369Z,96.71
2023-11-05T23:35:14.472Z,97.64
2023-11-05T23:38:17.619Z,98.10
2023-11-05T23:41:22.476Z,98.99
2023-11-05T23:44:25.363Z,99.70
2023-11-05T23:47:28.321Z,100.00
2023-11-05T23:50:31.216Z,100.00
2023-11-05T23:53:34.043Z,100.00
2023-11-05T23:56:36.905Z,100.00
2023-11-05T23:59:40.101Z,97.86
